createdAt,value
2018-11-03T00:01:00.991Z,14.50
2018-11-03T00:03:29.836Z,15.10
2018-11-03T00:05:58.603Z,14.45
2018-11-03T00:08:27.335Z,15.20
2018-11-03T00:10:56.090Z,15.15
2018-11-03T00:13:24.883Z,16.40
2018-11-03T00:15:53.582Z,15.98
2018-11-03T00:18:22.366Z,17.70
2018-11-03T00:20:51.059Z,19.52
2018-11-03T00:23:19.821Z,18.35
2018-11-03T00:25:48.556Z,16.57
2018-11-03T00:28:17.332Z,13.03
2018-11-03T00:30:46.150Z,17.57
2018-11-03T00:33:14.858Z,18.02
2018-11-03T00:35:43.576Z,22.90
2018-11-03T00:38:12.339Z,18.77
2018-11-03T00:40:41.053Z,13.35
2018-11-03T00:43:09.758Z,15.85
2018-11-03T00:45:38.455Z,17.27
2018-11-03T00:48:07.342Z,13.70
2018-11-03T00:50:36.085Z,13.55
2018-11-03T00:53:05.532Z,21.33
2018-11-03T00:55:34.239Z,16.15
2018-11-03T00:58:02.892Z,16.30
2018-11-03T01:00:31.571Z,20.65
2018-11-03T01:03:00.370Z,14.58
2018-11-03T01:05:29.133Z,18.60
2018-11-03T01:07:57.852Z,17.55
2018-11-03T01:10:26.572Z,15.10
2018-11-03T01:12:55.282Z,15.88
2018-11-03T01:15:23.982Z,15.60
2018-11-03T01:17:52.691Z,18.82
2018-11-03T01:20:21.424Z,18.82
2018-11-03T01:22:50.141Z,17.87
2018-11-03T01:25:18.868Z,17.15
2018-11-03T01:27:47.533Z,18.80
2018-11-03T01:30:17.076Z,19.35
2018-11-03T01:32:45.906Z,20.52
2018-11-03T01:35:14.651Z,22.60
2018-11-03T01:37:43.425Z,16.05
2018-11-03T01:40:13.215Z,18.32
2018-11-03T01:42:41.988Z,36.75
2018-11-03T01:45:10.709Z,23.07
2018-11-03T01:47:39.477Z,20.90
2018-11-03T01:50:09.668Z,19.57
2018-11-03T01:52:39.129Z,17.80
2018-11-03T01:55:08.222Z,21.70
2018-11-03T01:57:37.681Z,18.40
2018-11-03T02:00:07.463Z,24.02
2018-11-03T02:02:36.171Z,16.85
2018-11-03T02:05:05.277Z,20.77
2018-11-03T02:07:33.992Z,19.82
2018-11-03T02:10:02.707Z,16.42
2018-11-03T02:12:31.441Z,22.55
2018-11-03T02:15:03.801Z,22.95
2018-11-03T02:17:42.805Z,31.60
2018-11-03T02:20:18.379Z,21.70
2018-11-03T02:22:51.339Z,16.32
2018-11-03T02:25:24.382Z,18.57
2018-11-03T02:28:00.398Z,21.55
2018-11-03T02:30:33.378Z,19.15
2018-11-03T02:33:08.301Z,16.87
2018-11-03T02:35:41.741Z,20.62
2018-11-03T02:38:17.509Z,22.45
2018-11-03T02:40:52.539Z,18.15
2018-11-03T02:43:25.676Z,15.68
2018-11-03T02:45:58.937Z,18.87
2018-11-03T02:48:32.538Z,17.95
2018-11-03T02:51:09.084Z,19.00
2018-11-03T02:53:46.620Z,23.12
2018-11-03T02:56:27.845Z,21.48
2018-11-03T02:59:01.600Z,22.58
2018-11-03T03:01:35.794Z,15.75
2018-11-03T03:04:10.059Z,23.38
2018-11-03T03:06:48.312Z,15.70
2018-11-03T03:09:21.632Z,17.73
2018-11-03T03:11:55.207Z,20.17
2018-11-03T03:14:28.108Z,14.95
2018-11-03T03:17:00.623Z,25.45
2018-11-03T03:19:33.254Z,19.30
2018-11-03T03:22:04.594Z,23.92
2018-11-03T03:24:44.972Z,17.48
2018-11-03T03:27:18.601Z,18.05
2018-11-03T03:29:51.449Z,23.52
2018-11-03T03:32:24.117Z,21.45
2018-11-03T03:34:56.893Z,18.73
2018-11-03T03:37:35.096Z,25.17
2018-11-03T03:40:04.307Z,20.97
2018-11-03T03:42:32.925Z,27.17
2018-11-03T03:45:01.606Z,26.20
2018-11-03T03:47:30.322Z,21.35
2018-11-03T03:49:59.056Z,21.15
2018-11-03T03:52:27.765Z,25.30
2018-11-03T03:54:56.509Z,17.77
2018-11-03T03:57:25.249Z,22.30
2018-11-03T03:59:53.960Z,18.60
2018-11-03T04:02:22.712Z,22.40
2018-11-03T04:04:51.481Z,15.60
2018-11-03T04:07:20.188Z,23.00
2018-11-03T04:09:48.901Z,26.50
2018-11-03T04:12:17.588Z,17.20
2018-11-03T04:14:46.313Z,21.75
2018-11-03T04:17:15.348Z,23.05
2018-11-03T04:19:44.123Z,22.95
2018-11-03T04:22:12.840Z,21.62
2018-11-03T04:24:41.577Z,20.10
2018-11-03T04:27:10.292Z,14.03
2018-11-03T04:29:39.096Z,15.32
2018-11-03T04:32:07.693Z,16.77
2018-11-03T04:34:36.347Z,17.67
2018-11-03T04:37:05.081Z,16.10
2018-11-03T04:39:33.841Z,19.57
2018-11-03T04:42:02.526Z,17.75
2018-11-03T04:44:31.261Z,16.35
2018-11-03T04:46:59.953Z,30.00
2018-11-03T04:49:28.788Z,25.20
2018-11-03T04:51:57.457Z,21.85
2018-11-03T04:54:26.133Z,19.82
2018-11-03T04:56:54.866Z,17.70
2018-11-03T04:59:23.581Z,21.65
2018-11-03T05:01:52.322Z,16.57
2018-11-03T05:04:21.009Z,19.92
2018-11-03T05:06:49.775Z,20.12
2018-11-03T05:09:18.432Z,16.37
2018-11-03T05:11:47.127Z,16.48
2018-11-03T05:14:15.842Z,21.35
2018-11-03T05:16:44.554Z,13.95
2018-11-03T05:19:13.246Z,31.25
2018-11-03T05:21:41.989Z,25.15
2018-11-03T05:24:10.679Z,31.23
2018-11-03T05:26:39.354Z,28.50
2018-11-03T05:29:08.678Z,19.92
2018-11-03T05:31:37.450Z,19.17
2018-11-03T05:34:06.289Z,23.57
2018-11-03T05:36:35.102Z,17.07
2018-11-03T05:39:05.381Z,18.15
2018-11-03T05:41:34.086Z,20.90
2018-11-03T05:44:02.834Z,21.75
2018-11-03T05:46:31.575Z,22.45
2018-11-03T05:49:00.272Z,20.70
2018-11-03T05:51:28.954Z,23.45
2018-11-03T05:53:57.684Z,36.93
2018-11-03T05:56:26.397Z,20.05
2018-11-03T05:58:55.069Z,16.95
2018-11-03T06:01:23.832Z,19.85
2018-11-03T06:03:52.585Z,21.85
2018-11-03T06:06:21.344Z,22.55
2018-11-03T06:08:50.159Z,18.98
2018-11-03T06:11:18.771Z,23.55
2018-11-03T06:13:47.500Z,21.07
2018-11-03T06:16:16.257Z,20.37
2018-11-03T06:18:44.961Z,16.52
2018-11-03T06:21:13.609Z,15.85
2018-11-03T06:23:42.373Z,21.05
2018-11-03T06:26:10.997Z,20.85
2018-11-03T06:28:39.637Z,22.82
2018-11-03T06:31:08.396Z,20.75
2018-11-03T06:33:37.121Z,22.90
2018-11-03T06:36:05.901Z,15.68
2018-11-03T06:38:34.644Z,14.63
2018-11-03T06:41:03.369Z,27.80
2018-11-03T06:43:32.062Z,19.10
2018-11-03T06:46:00.808Z,21.95
2018-11-03T06:48:29.489Z,14.15
2018-11-03T06:50:58.214Z,19.32
2018-11-03T06:53:26.975Z,18.48
2018-11-03T06:55:55.657Z,16.25
2018-11-03T06:58:24.320Z,18.90
2018-11-03T07:00:53.029Z,17.70
2018-11-03T07:03:21.673Z,18.50
2018-11-03T07:05:50.353Z,18.65
2018-11-03T07:08:19.069Z,23.45
2018-11-03T07:10:47.726Z,18.60
2018-11-03T07:13:16.646Z,19.37
2018-11-03T07:15:45.185Z,20.62
2018-11-03T07:18:13.940Z,19.15
2018-11-03T07:20:42.657Z,20.75
2018-11-03T07:23:11.333Z,15.20
2018-11-03T07:25:40.119Z,21.25
2018-11-03T07:28:08.789Z,18.45
2018-11-03T07:30:37.539Z,18.35
2018-11-03T07:33:06.301Z,18.17
2018-11-03T07:35:35.065Z,21.27
2018-11-03T07:38:03.766Z,20.50
2018-11-03T07:40:32.472Z,18.92
2018-11-03T07:43:01.158Z,24.35
2018-11-03T07:45:29.857Z,17.02
2018-11-03T07:47:58.671Z,17.52
2018-11-03T07:50:27.382Z,21.25
2018-11-03T07:52:56.123Z,15.48
2018-11-03T07:55:24.781Z,17.60
2018-11-03T07:57:53.475Z,18.35
2018-11-03T08:00:22.193Z,13.75
2018-11-03T08:02:50.858Z,16.05
2018-11-03T08:05:19.655Z,17.90
2018-11-03T08:07:48.338Z,19.30
2018-11-03T08:10:16.972Z,19.98
2018-11-03T08:12:45.755Z,16.20
2018-11-03T08:15:14.428Z,14.68
2018-11-03T08:17:43.980Z,25.10
2018-11-03T08:20:12.825Z,19.27
2018-11-03T08:22:41.596Z,17.02
2018-11-03T08:25:10.347Z,15.80
2018-11-03T08:27:39.149Z,15.13
2018-11-03T08:30:10.409Z,17.82
2018-11-03T08:32:39.355Z,16.12
2018-11-03T08:35:08.934Z,16.10
2018-11-03T08:37:37.769Z,21.80
2018-11-03T08:40:08.109Z,14.50
2018-11-03T08:42:36.899Z,17.70
2018-11-03T08:45:05.734Z,18.23
2018-11-03T08:47:34.510Z,12.40
2018-11-03T08:50:03.333Z,13.80
2018-11-03T08:52:32.205Z,14.68
2018-11-03T08:55:01.112Z,11.68
2018-11-03T08:57:29.825Z,14.03
2018-11-03T08:59:58.770Z,15.53
2018-11-03T09:02:27.373Z,16.48
2018-11-03T09:04:56.117Z,16.20
2018-11-03T09:07:24.791Z,11.88
2018-11-03T09:09:53.503Z,11.93
2018-11-03T09:12:22.199Z,11.95
2018-11-03T09:14:50.961Z,16.52
2018-11-03T09:17:19.630Z,11.48
2018-11-03T09:19:48.394Z,16.90
2018-11-03T09:22:17.077Z,13.80
2018-11-03T09:24:45.941Z,13.28
2018-11-03T09:27:14.666Z,16.67
2018-11-03T09:29:43.461Z,12.47
2018-11-03T09:32:12.157Z,9.80
2018-11-03T09:34:40.972Z,13.35
2018-11-03T09:37:09.599Z,15.63
2018-11-03T09:39:38.344Z,18.57
2018-11-03T09:42:07.239Z,11.15
2018-11-03T09:44:35.975Z,10.50
2018-11-03T09:47:04.756Z,13.35
2018-11-03T09:49:34.385Z,11.43
2018-11-03T09:52:03.913Z,15.25
2018-11-03T09:54:32.589Z,15.58
2018-11-03T09:57:01.299Z,10.60
2018-11-03T09:59:30.089Z,15.70
2018-11-03T10:01:58.849Z,15.38
2018-11-03T10:04:27.509Z,19.80
2018-11-03T10:06:56.219Z,9.60
2018-11-03T10:09:24.962Z,13.70
2018-11-03T10:11:53.692Z,16.67
2018-11-03T10:14:22.380Z,16.12
2018-11-03T10:16:51.177Z,10.58
2018-11-03T10:19:19.878Z,12.73
2018-11-03T10:21:48.661Z,15.68
2018-11-03T10:24:17.900Z,14.63
2018-11-03T10:26:46.650Z,12.00
2018-11-03T10:29:15.386Z,14.13
2018-11-03T10:31:44.030Z,14.45
2018-11-03T10:34:12.900Z,14.18
2018-11-03T10:36:41.649Z,18.90
2018-11-03T10:39:12.310Z,11.28
2018-11-03T10:41:41.713Z,13.05
2018-11-03T10:44:10.604Z,12.65
2018-11-03T10:46:39.509Z,19.62
2018-11-03T10:49:08.214Z,10.72
2018-11-03T10:51:36.937Z,12.33
2018-11-03T10:54:06.097Z,12.15
2018-11-03T10:56:34.867Z,15.75
2018-11-03T10:59:03.713Z,19.12
2018-11-03T11:01:37.553Z,13.10
2018-11-03T11:04:11.736Z,15.88
2018-11-03T11:06:45.876Z,13.70
2018-11-03T11:09:19.934Z,17.07
2018-11-03T11:11:53.946Z,15.75
2018-11-03T11:14:22.662Z,15.48
2018-11-03T11:16:51.495Z,17.45
2018-11-03T11:19:20.331Z,13.18
2018-11-03T11:21:49.072Z,18.82
2018-11-03T11:24:18.005Z,21.68
2018-11-03T11:26:46.621Z,18.02
2018-11-03T11:29:15.310Z,15.95
2018-11-03T11:31:44.133Z,12.13
2018-11-03T11:34:13.093Z,17.45
2018-11-03T11:36:41.850Z,16.10
2018-11-03T11:39:10.649Z,13.10
2018-11-03T11:41:39.434Z,9.35
2018-11-03T11:44:08.214Z,10.88
2018-11-03T11:46:37.047Z,13.98
2018-11-03T11:49:05.945Z,15.05
2018-11-03T11:51:34.788Z,12.68
2018-11-03T11:54:03.510Z,13.90
2018-11-03T11:56:32.487Z,12.03
2018-11-03T11:59:01.173Z,16.65
2018-11-03T12:01:29.992Z,12.43
2018-11-03T12:03:58.888Z,15.05
2018-11-03T12:06:27.647Z,14.28
2018-11-03T12:08:56.358Z,12.15
2018-11-03T12:11:25.258Z,17.75
2018-11-03T12:13:54.111Z,11.93
2018-11-03T12:16:22.853Z,16.07
2018-11-03T12:18:51.808Z,13.65
2018-11-03T12:21:20.550Z,14.45
2018-11-03T12:23:49.358Z,12.05
2018-11-03T12:26:18.141Z,12.15
2018-11-03T12:28:46.973Z,14.60
2018-11-03T12:31:15.686Z,14.47
2018-11-03T12:33:44.447Z,16.97
2018-11-03T12:36:13.300Z,14.28
2018-11-03T12:38:42.013Z,11.35
2018-11-03T12:41:10.874Z,13.75
2018-11-03T12:43:40.072Z,11.60
2018-11-03T12:46:08.901Z,17.77
2018-11-03T12:48:37.710Z,12.55
2018-11-03T12:51:06.393Z,12.93
2018-11-03T12:53:35.205Z,13.95
2018-11-03T12:56:04.083Z,12.45
2018-11-03T12:58:32.791Z,12.10
2018-11-03T13:01:01.539Z,12.58
2018-11-03T13:03:30.384Z,15.08
2018-11-03T13:05:59.238Z,15.05
2018-11-03T13:08:28.114Z,11.50
2018-11-03T13:10:57.017Z,15.35
2018-11-03T13:13:25.784Z,18.92
2018-11-03T13:15:54.554Z,16.57
2018-11-03T13:18:23.287Z,12.20
2018-11-03T13:20:52.103Z,15.03
2018-11-03T13:23:20.821Z,15.43
2018-11-03T13:25:49.629Z,15.98
2018-11-03T13:28:18.376Z,17.37
2018-11-03T13:30:47.073Z,14.13
2018-11-03T13:33:15.790Z,17.00
2018-11-03T13:35:44.632Z,17.87
2018-11-03T13:38:13.469Z,14.40
2018-11-03T13:40:42.179Z,20.82
2018-11-03T13:43:10.952Z,16.45
2018-11-03T13:45:39.776Z,15.68
2018-11-03T13:48:08.858Z,15.65
2018-11-03T13:50:37.793Z,17.17
2018-11-03T13:53:06.557Z,21.25
2018-11-03T13:55:35.329Z,16.85
2018-11-03T13:58:04.094Z,20.32
2018-11-03T14:00:32.894Z,21.87
2018-11-03T14:03:01.607Z,16.07
2018-11-03T14:05:30.409Z,19.75
2018-11-03T14:07:59.133Z,16.75
2018-11-03T14:10:27.890Z,18.23
2018-11-03T14:12:57.078Z,18.25
2018-11-03T14:15:26.067Z,17.48
2018-11-03T14:17:54.854Z,17.80
2018-11-03T14:20:23.512Z,20.15
2018-11-03T14:22:52.216Z,19.02
2018-11-03T14:25:20.961Z,29.02
2018-11-03T14:27:49.739Z,22.58
2018-11-03T14:30:18.596Z,21.97
2018-11-03T14:32:47.354Z,17.20
2018-11-03T14:35:16.747Z,28.77
2018-11-03T14:37:45.660Z,19.90
2018-11-03T14:40:15.757Z,15.98
2018-11-03T14:42:45.349Z,17.77
2018-11-03T14:45:14.997Z,17.52
2018-11-03T14:47:43.788Z,16.17
2018-11-03T14:50:12.683Z,21.73
2018-11-03T14:52:42.442Z,17.23
2018-11-03T14:55:11.889Z,18.75
2018-11-03T14:57:40.769Z,23.80
2018-11-03T15:00:12.513Z,19.05
2018-11-03T15:02:41.312Z,22.50
2018-11-03T15:05:11.172Z,20.30
2018-11-03T15:07:39.950Z,20.88
2018-11-03T15:10:09.774Z,26.23
2018-11-03T15:12:38.759Z,17.12
2018-11-03T15:15:09.838Z,18.25
2018-11-03T15:17:38.793Z,20.23
2018-11-03T15:20:08.556Z,24.43
2018-11-03T15:22:37.392Z,31.25
2018-11-03T15:25:06.990Z,19.05
2018-11-03T15:27:35.817Z,23.95
2018-11-03T15:30:04.654Z,38.48
2018-11-03T15:32:33.395Z,24.10
2018-11-03T15:35:02.275Z,25.85
2018-11-03T15:37:30.920Z,25.75
2018-11-03T15:39:59.721Z,20.35
2018-11-03T15:42:28.844Z,28.12
2018-11-03T15:44:57.699Z,20.77
2018-11-03T15:47:26.456Z,22.00
2018-11-03T15:49:55.230Z,23.70
2018-11-03T15:52:24.071Z,26.60
2018-11-03T15:54:53.159Z,25.30
2018-11-03T15:57:22.069Z,29.50
2018-11-03T15:59:50.761Z,27.32
2018-11-03T16:02:19.471Z,29.95
2018-11-03T16:04:48.197Z,22.58
2018-11-03T16:07:17.001Z,27.65
2018-11-03T16:09:45.679Z,25.08
2018-11-03T16:12:14.526Z,29.02
2018-11-03T16:14:43.333Z,22.15
2018-11-03T16:17:12.333Z,25.15
2018-11-03T16:19:41.256Z,25.20
2018-11-03T16:22:10.212Z,36.73
2018-11-03T16:24:39.054Z,22.42
2018-11-03T16:27:07.853Z,32.23
2018-11-03T16:29:36.685Z,26.02
2018-11-03T16:32:05.839Z,25.70
2018-11-03T16:34:34.798Z,25.65
2018-11-03T16:37:03.618Z,23.57
2018-11-03T16:39:32.465Z,28.20
2018-11-03T16:42:01.421Z,25.43
2018-11-03T16:44:30.429Z,24.07
2018-11-03T16:46:59.522Z,23.40
2018-11-03T16:49:28.398Z,22.82
2018-11-03T16:51:57.269Z,31.70
2018-11-03T16:54:28.741Z,27.22
2018-11-03T16:56:57.474Z,22.98
2018-11-03T16:59:26.677Z,28.17
2018-11-03T17:01:55.818Z,23.73
2018-11-03T17:04:24.550Z,27.65
2018-11-03T17:06:53.318Z,27.52
2018-11-03T17:09:22.013Z,29.85
2018-11-03T17:11:50.924Z,29.98
2018-11-03T17:14:21.182Z,20.80
2018-11-03T17:16:49.994Z,24.80
2018-11-03T17:19:18.831Z,28.30
2018-11-03T17:21:47.592Z,30.23
2018-11-03T17:24:16.780Z,28.27
2018-11-03T17:26:45.589Z,39.83
2018-11-03T17:29:14.371Z,30.08
2018-11-03T17:31:43.091Z,29.12
2018-11-03T17:34:11.839Z,26.07
2018-11-03T17:36:40.610Z,24.23
2018-11-03T17:39:11.167Z,31.05
2018-11-03T17:41:40.064Z,29.82
2018-11-03T17:44:09.136Z,23.47
2018-11-03T17:46:37.963Z,27.45
2018-11-03T17:49:06.905Z,24.35
2018-11-03T17:51:35.697Z,28.73
2018-11-03T17:54:04.781Z,29.55
2018-11-03T17:56:33.528Z,28.98
2018-11-03T17:59:02.490Z,28.83
2018-11-03T18:01:31.468Z,36.77
2018-11-03T18:04:00.115Z,36.40
2018-11-03T18:06:28.949Z,26.30
2018-11-03T18:08:57.661Z,37.48
2018-11-03T18:11:26.461Z,31.45
2018-11-03T18:13:55.253Z,27.30
2018-11-03T18:16:24.007Z,28.20
2018-11-03T18:18:52.739Z,35.03
2018-11-03T18:21:21.506Z,29.77
2018-11-03T18:23:50.331Z,34.40
2018-11-03T18:26:19.252Z,32.30
2018-11-03T18:28:48.002Z,25.50
2018-11-03T18:31:16.736Z,33.38
2018-11-03T18:33:45.501Z,30.80
2018-11-03T18:36:14.314Z,30.77
2018-11-03T18:38:43.042Z,29.10
2018-11-03T18:41:11.930Z,34.95
2018-11-03T18:43:41.247Z,29.15
2018-11-03T18:46:10.023Z,34.15
2018-11-03T18:48:38.741Z,35.15
2018-11-03T18:51:07.605Z,31.65
2018-11-03T18:53:36.313Z,30.57
2018-11-03T18:56:05.542Z,33.35
2018-11-03T18:58:34.277Z,30.97
2018-11-03T19:01:03.400Z,34.90
2018-11-03T19:03:32.173Z,29.87
2018-11-03T19:06:01.253Z,34.75
2018-11-03T19:08:30.093Z,34.55
2018-11-03T19:10:58.933Z,38.55
2018-11-03T19:13:27.725Z,35.35
2018-11-03T19:15:56.465Z,35.38
2018-11-03T19:18:25.254Z,32.75
2018-11-03T19:20:54.119Z,42.53
2018-11-03T19:23:22.934Z,30.90
2018-11-03T19:25:51.707Z,31.90
2018-11-03T19:28:20.726Z,33.10
2018-11-03T19:30:49.521Z,33.20
2018-11-03T19:33:18.337Z,33.73
2018-11-03T19:35:47.329Z,33.15
2018-11-03T19:38:16.185Z,50.28
2018-11-03T19:40:44.987Z,34.38
2018-11-03T19:43:13.761Z,41.10
2018-11-03T19:45:42.534Z,35.20
2018-11-03T19:48:11.431Z,37.10
2018-11-03T19:50:40.163Z,43.80
2018-11-03T19:53:09.063Z,37.93
2018-11-03T19:55:37.917Z,36.40
2018-11-03T19:58:06.889Z,39.00
2018-11-03T20:00:35.634Z,39.90
2018-11-03T20:03:04.412Z,37.90
2018-11-03T20:05:33.148Z,39.65
2018-11-03T20:08:01.911Z,41.88
2018-11-03T20:10:30.643Z,48.75
2018-11-03T20:12:59.510Z,54.55
2018-11-03T20:15:28.337Z,47.78
2018-11-03T20:17:57.089Z,46.68
2018-11-03T20:20:25.766Z,47.13
2018-11-03T20:22:54.613Z,51.18
2018-11-03T20:25:23.362Z,46.68
2018-11-03T20:27:52.180Z,48.95
2018-11-03T20:30:21.033Z,42.70
2018-11-03T20:32:49.797Z,38.53
2018-11-03T20:35:18.545Z,38.50
2018-11-03T20:37:47.224Z,39.20
2018-11-03T20:40:15.937Z,44.05
2018-11-03T20:42:44.789Z,40.45
2018-11-03T20:45:13.591Z,41.70
2018-11-03T20:47:42.354Z,42.35
2018-11-03T20:50:12.776Z,37.17
2018-11-03T20:52:41.543Z,39.18
2018-11-03T20:55:11.321Z,39.10
2018-11-03T20:57:40.373Z,36.08
2018-11-03T21:00:12.666Z,37.58
2018-11-03T21:02:46.639Z,43.52
2018-11-03T21:05:19.589Z,46.45
2018-11-03T21:07:48.392Z,43.35
2018-11-03T21:10:17.117Z,42.00
2018-11-03T21:12:45.882Z,39.75
2018-11-03T21:15:14.610Z,46.02
2018-11-03T21:17:43.426Z,48.60
2018-11-03T21:20:12.108Z,40.28
2018-11-03T21:22:40.966Z,40.78
2018-11-03T21:25:09.731Z,43.70
2018-11-03T21:27:38.572Z,43.08
2018-11-03T21:30:08.547Z,44.15
2018-11-03T21:32:37.347Z,44.88
2018-11-03T21:35:06.330Z,51.68
2018-11-03T21:37:35.066Z,40.23
2018-11-03T21:40:03.893Z,48.90
2018-11-03T21:42:32.684Z,41.23
2018-11-03T21:45:01.917Z,44.27
2018-11-03T21:47:30.781Z,47.67
2018-11-03T21:49:59.660Z,41.00
2018-11-03T21:52:28.653Z,42.62
2018-11-03T21:54:57.478Z,49.88
2018-11-03T21:57:26.306Z,45.70
2018-11-03T21:59:55.074Z,42.65
2018-11-03T22:02:23.842Z,54.35
2018-11-03T22:04:52.576Z,46.68
2018-11-03T22:07:21.304Z,48.13
2018-11-03T22:09:50.186Z,51.88
2018-11-03T22:12:18.874Z,44.73
2018-11-03T22:14:47.570Z,43.87
2018-11-03T22:17:16.285Z,43.60
2018-11-03T22:19:45.050Z,46.45
2018-11-03T22:22:13.946Z,43.90
2018-11-03T22:24:42.613Z,41.65
2018-11-03T22:27:11.895Z,48.60
2018-11-03T22:29:40.762Z,37.00
2018-11-03T22:32:09.835Z,47.15
2018-11-03T22:34:38.564Z,42.35
2018-11-03T22:37:07.346Z,45.55
2018-11-03T22:39:36.193Z,53.40
2018-11-03T22:42:05.428Z,47.00
2018-11-03T22:44:34.372Z,46.60
2018-11-03T22:47:03.123Z,48.58
2018-11-03T22:49:31.804Z,47.27
2018-11-03T22:52:00.733Z,39.90
2018-11-03T22:54:29.451Z,39.67
2018-11-03T22:56:58.213Z,48.45
2018-11-03T22:59:27.049Z,44.18
2018-11-03T23:01:55.779Z,55.43
2018-11-03T23:04:24.436Z,42.27
2018-11-03T23:06:53.181Z,51.20
2018-11-03T23:09:22.027Z,53.63
2018-11-03T23:11:50.834Z,48.33
2018-11-03T23:14:20.210Z,49.85
2018-11-03T23:16:49.009Z,47.15
2018-11-03T23:19:17.811Z,50.12
2018-11-03T23:21:46.531Z,49.40
2018-11-03T23:24:15.268Z,47.75
2018-11-03T23:26:43.977Z,51.50
2018-11-03T23:29:12.673Z,54.25
2018-11-03T23:31:41.504Z,50.70
2018-11-03T23:34:10.302Z,48.05
2018-11-03T23:36:39.001Z,47.17
2018-11-03T23:39:09.825Z,49.38
2018-11-03T23:41:38.835Z,55.83
2018-11-03T23:44:07.840Z,46.40
2018-11-03T23:46:36.890Z,47.00
2018-11-03T23:49:05.646Z,51.18
2018-11-03T23:51:34.533Z,46.90
2018-11-03T23:54:03.325Z,47.53
2018-11-03T23:56:32.097Z,47.73
2018-11-03T23:59:00.852Z,43.42
